sensor_id;sensor_type;location;lat;lon;timestamp;P1;durP1;ratioP1;P2;durP2;ratioP2
36799;SDS011;22752;51.960;5.886;2023-03-20T00:02:10;24.90;;;15.37;;
36799;SDS011;22752;51.960;5.886;2023-03-20T00:04:43;24.37;;;15.07;;
36799;SDS011;22752;51.960;5.886;2023-03-20T00:07:09;21.80;;;14.27;;
36799;SDS011;22752;51.960;5.886;2023-03-20T00:09:36;23.93;;;13.93;;
36799;SDS011;22752;51.960;5.886;2023-03-20T00:12:03;21.97;;;13.40;;
36799;SDS011;22752;51.960;5.886;2023-03-20T00:14:29;26.27;;;14.00;;
36799;SDS011;22752;51.960;5.886;2023-03-20T00:16:55;23.73;;;13.33;;
36799;SDS011;22752;51.960;5.886;2023-03-20T00:19:22;25.50;;;15.30;;
36799;SDS011;22752;51.960;5.886;2023-03-20T00:21:53;24.97;;;14.17;;
36799;SDS011;22752;51.960;5.886;2023-03-20T00:24:20;21.87;;;14.43;;
36799;SDS011;22752;51.960;5.886;2023-03-20T00:26:47;23.10;;;14.20;;
36799;SDS011;22752;51.960;5.886;2023-03-20T00:29:21;25.47;;;14.23;;
36799;SDS011;22752;51.960;5.886;2023-03-20T00:31:47;21.73;;;12.97;;
36799;SDS011;22752;51.960;5.886;2023-03-20T00:34:15;20.47;;;13.40;;
36799;SDS011;22752;51.960;5.886;2023-03-20T00:36:42;19.60;;;13.10;;
36799;SDS011;22752;51.960;5.886;2023-03-20T00:39:07;20.43;;;13.63;;
36799;SDS011;22752;51.960;5.886;2023-03-20T00:44:56;21.33;;;14.50;;
36799;SDS011;22752;51.960;5.886;2023-03-20T00:47:10;19.50;;;13.00;;
36799;SDS011;22752;51.960;5.886;2023-03-20T00:49:43;23.60;;;13.70;;
36799;SDS011;22752;51.960;5.886;2023-03-20T00:52:12;17.77;;;13.27;;
36799;SDS011;22752;51.960;5.886;2023-03-20T00:54:39;22.63;;;16.20;;
36799;SDS011;22752;51.960;5.886;2023-03-20T00:57:07;25.20;;;15.13;;
36799;SDS011;22752;51.960;5.886;2023-03-20T01:02:14;21.87;;;15.53;;
36799;SDS011;22752;51.960;5.886;2023-03-20T01:04:41;20.87;;;14.67;;
36799;SDS011;22752;51.960;5.886;2023-03-20T01:07:08;29.83;;;15.90;;
36799;SDS011;22752;51.960;5.886;2023-03-20T01:09:36;22.57;;;14.67;;
36799;SDS011;22752;51.960;5.886;2023-03-20T01:12:03;20.17;;;15.33;;
36799;SDS011;22752;51.960;5.886;2023-03-20T01:14:29;21.80;;;15.53;;
36799;SDS011;22752;51.960;5.886;2023-03-20T01:16:55;24.63;;;17.37;;
36799;SDS011;22752;51.960;5.886;2023-03-20T01:19:21;29.10;;;18.67;;
36799;SDS011;22752;51.960;5.886;2023-03-20T01:21:46;26.00;;;16.63;;
36799;SDS011;22752;51.960;5.886;2023-03-20T01:24:12;28.33;;;18.97;;
36799;SDS011;22752;51.960;5.886;2023-03-20T01:26:39;28.20;;;19.47;;
36799;SDS011;22752;51.960;5.886;2023-03-20T01:32:01;27.80;;;19.33;;
36799;SDS011;22752;51.960;5.886;2023-03-20T01:34:26;29.07;;;18.10;;
36799;SDS011;22752;51.960;5.886;2023-03-20T01:36:53;25.63;;;16.90;;
36799;SDS011;22752;51.960;5.886;2023-03-20T01:39:21;28.90;;;17.50;;
36799;SDS011;22752;51.960;5.886;2023-03-20T01:41:52;30.30;;;17.47;;
36799;SDS011;22752;51.960;5.886;2023-03-20T01:44:28;30.80;;;17.63;;
36799;SDS011;22752;51.960;5.886;2023-03-20T01:46:56;27.53;;;16.67;;
36799;SDS011;22752;51.960;5.886;2023-03-20T01:51:50;24.17;;;15.57;;
36799;SDS011;22752;51.960;5.886;2023-03-20T01:54:17;26.77;;;14.47;;
36799;SDS011;22752;51.960;5.886;2023-03-20T01:57:01;24.10;;;13.87;;
36799;SDS011;22752;51.960;5.886;2023-03-20T01:59:41;27.27;;;14.73;;
36799;SDS011;22752;51.960;5.886;2023-03-20T02:02:13;27.67;;;14.87;;
36799;SDS011;22752;51.960;5.886;2023-03-20T02:04:43;27.70;;;15.23;;
36799;SDS011;22752;51.960;5.886;2023-03-20T02:07:12;32.43;;;16.40;;
36799;SDS011;22752;51.960;5.886;2023-03-20T02:09:41;28.83;;;15.03;;
36799;SDS011;22752;51.960;5.886;2023-03-20T02:12:07;26.03;;;14.60;;
36799;SDS011;22752;51.960;5.886;2023-03-20T02:14:34;24.80;;;14.03;;
36799;SDS011;22752;51.960;5.886;2023-03-20T02:17:01;27.20;;;14.37;;
36799;SDS011;22752;51.960;5.886;2023-03-20T02:19:37;21.97;;;13.40;;
36799;SDS011;22752;51.960;5.886;2023-03-20T02:30:48;23.10;;;11.10;;
36799;SDS011;22752;51.960;5.886;2023-03-20T02:47:03;10.00;;;5.40;;
36799;SDS011;22752;51.960;5.886;2023-03-20T02:49:53;9.43;;;5.53;;
36799;SDS011;22752;51.960;5.886;2023-03-20T02:52:35;11.27;;;5.20;;
36799;SDS011;22752;51.960;5.886;2023-03-20T02:55:17;10.82;;;5.43;;
36799;SDS011;22752;51.960;5.886;2023-03-20T03:03:14;9.27;;;5.50;;
36799;SDS011;22752;51.960;5.886;2023-03-20T03:05:56;10.13;;;5.55;;
36799;SDS011;22752;51.960;5.886;2023-03-20T03:08:27;10.63;;;5.80;;
36799;SDS011;22752;51.960;5.886;2023-03-20T03:11:03;7.35;;;5.05;;
36799;SDS011;22752;51.960;5.886;2023-03-20T03:13:31;9.15;;;5.82;;
36799;SDS011;22752;51.960;5.886;2023-03-20T03:16:18;10.90;;;6.07;;
36799;SDS011;22752;51.960;5.886;2023-03-20T03:19:08;11.88;;;6.00;;
36799;SDS011;22752;51.960;5.886;2023-03-20T03:21:38;11.80;;;6.07;;
36799;SDS011;22752;51.960;5.886;2023-03-20T03:24:05;16.17;;;7.57;;
36799;SDS011;22752;51.960;5.886;2023-03-20T03:26:43;13.37;;;7.17;;
36799;SDS011;22752;51.960;5.886;2023-03-20T03:29:11;14.90;;;7.30;;
36799;SDS011;22752;51.960;5.886;2023-03-20T03:31:40;13.90;;;7.27;;
36799;SDS011;22752;51.960;5.886;2023-03-20T03:34:10;13.27;;;7.50;;
36799;SDS011;22752;51.960;5.886;2023-03-20T03:47:33;16.23;;;7.83;;
36799;SDS011;22752;51.960;5.886;2023-03-20T03:50:09;17.07;;;8.43;;
36799;SDS011;22752;51.960;5.886;2023-03-20T03:52:42;13.83;;;7.57;;
36799;SDS011;22752;51.960;5.886;2023-03-20T03:55:12;14.57;;;8.23;;
36799;SDS011;22752;51.960;5.886;2023-03-20T03:57:45;18.13;;;9.40;;
36799;SDS011;22752;51.960;5.886;2023-03-20T04:00:16;19.00;;;10.63;;
36799;SDS011;22752;51.960;5.886;2023-03-20T04:02:46;21.07;;;11.93;;
36799;SDS011;22752;51.960;5.886;2023-03-20T04:05:14;23.17;;;10.90;;
36799;SDS011;22752;51.960;5.886;2023-03-20T04:07:43;20.53;;;11.57;;
36799;SDS011;22752;51.960;5.886;2023-03-20T04:10:10;23.10;;;11.87;;
36799;SDS011;22752;51.960;5.886;2023-03-20T04:12:40;20.30;;;12.03;;
36799;SDS011;22752;51.960;5.886;2023-03-20T04:15:07;20.53;;;11.63;;
36799;SDS011;22752;51.960;5.886;2023-03-20T04:17:34;22.53;;;13.10;;
36799;SDS011;22752;51.960;5.886;2023-03-20T04:19:59;21.63;;;11.87;;
36799;SDS011;22752;51.960;5.886;2023-03-20T04:22:25;26.10;;;13.60;;
36799;SDS011;22752;51.960;5.886;2023-03-20T04:24:51;25.07;;;13.73;;
36799;SDS011;22752;51.960;5.886;2023-03-20T04:27:17;27.37;;;15.83;;
36799;SDS011;22752;51.960;5.886;2023-03-20T04:29:43;29.10;;;15.77;;
36799;SDS011;22752;51.960;5.886;2023-03-20T04:32:09;30.30;;;16.40;;
36799;SDS011;22752;51.960;5.886;2023-03-20T04:34:35;35.60;;;19.07;;
36799;SDS011;22752;51.960;5.886;2023-03-20T04:37:01;31.80;;;18.10;;
36799;SDS011;22752;51.960;5.886;2023-03-20T04:39:27;33.30;;;18.80;;
36799;SDS011;22752;51.960;5.886;2023-03-20T04:41:53;37.17;;;19.73;;
36799;SDS011;22752;51.960;5.886;2023-03-20T04:44:18;33.47;;;18.50;;
36799;SDS011;22752;51.960;5.886;2023-03-20T04:46:44;32.20;;;18.60;;
36799;SDS011;22752;51.960;5.886;2023-03-20T04:49:10;30.73;;;18.23;;
36799;SDS011;22752;51.960;5.886;2023-03-20T04:51:35;33.80;;;19.50;;
36799;SDS011;22752;51.960;5.886;2023-03-20T04:54:01;36.23;;;19.77;;
36799;SDS011;22752;51.960;5.886;2023-03-20T04:56:28;29.67;;;18.20;;
36799;SDS011;22752;51.960;5.886;2023-03-20T04:58:53;26.80;;;17.70;;
36799;SDS011;22752;51.960;5.886;2023-03-20T05:01:19;29.77;;;17.77;;
36799;SDS011;22752;51.960;5.886;2023-03-20T05:03:45;28.80;;;18.80;;
36799;SDS011;22752;51.960;5.886;2023-03-20T05:06:10;31.20;;;17.07;;
36799;SDS011;22752;51.960;5.886;2023-03-20T05:08:36;30.30;;;17.20;;
36799;SDS011;22752;51.960;5.886;2023-03-20T05:11:02;28.70;;;15.50;;
36799;SDS011;22752;51.960;5.886;2023-03-20T05:13:31;29.47;;;16.47;;
36799;SDS011;22752;51.960;5.886;2023-03-20T05:15:57;27.03;;;15.63;;
36799;SDS011;22752;51.960;5.886;2023-03-20T05:18:22;26.77;;;15.20;;
36799;SDS011;22752;51.960;5.886;2023-03-20T05:20:48;27.93;;;15.40;;
36799;SDS011;22752;51.960;5.886;2023-03-20T05:23:14;23.27;;;14.67;;
36799;SDS011;22752;51.960;5.886;2023-03-20T05:25:40;25.00;;;13.77;;
36799;SDS011;22752;51.960;5.886;2023-03-20T05:28:06;21.07;;;14.43;;
36799;SDS011;22752;51.960;5.886;2023-03-20T05:30:31;26.93;;;13.90;;
36799;SDS011;22752;51.960;5.886;2023-03-20T05:32:57;25.93;;;13.67;;
36799;SDS011;22752;51.960;5.886;2023-03-20T05:35:23;24.97;;;13.70;;
36799;SDS011;22752;51.960;5.886;2023-03-20T05:37:48;20.40;;;12.60;;
36799;SDS011;22752;51.960;5.886;2023-03-20T05:40:14;26.40;;;13.70;;
36799;SDS011;22752;51.960;5.886;2023-03-20T05:42:40;21.90;;;13.20;;
36799;SDS011;22752;51.960;5.886;2023-03-20T05:45:06;28.37;;;13.87;;
36799;SDS011;22752;51.960;5.886;2023-03-20T05:47:32;24.43;;;13.47;;
36799;SDS011;22752;51.960;5.886;2023-03-20T05:49:58;21.83;;;12.13;;
36799;SDS011;22752;51.960;5.886;2023-03-20T05:52:24;21.73;;;13.07;;
36799;SDS011;22752;51.960;5.886;2023-03-20T05:54:50;22.43;;;13.53;;
36799;SDS011;22752;51.960;5.886;2023-03-20T05:57:16;21.73;;;12.07;;
36799;SDS011;22752;51.960;5.886;2023-03-20T05:59:42;21.87;;;13.03;;
36799;SDS011;22752;51.960;5.886;2023-03-20T06:02:08;22.03;;;11.53;;
36799;SDS011;22752;51.960;5.886;2023-03-20T06:04:34;20.07;;;11.70;;
36799;SDS011;22752;51.960;5.886;2023-03-20T06:07:01;20.80;;;11.47;;
36799;SDS011;22752;51.960;5.886;2023-03-20T06:09:27;20.57;;;11.67;;
36799;SDS011;22752;51.960;5.886;2023-03-20T06:11:53;19.80;;;11.73;;
36799;SDS011;22752;51.960;5.886;2023-03-20T06:14:19;22.20;;;12.00;;
36799;SDS011;22752;51.960;5.886;2023-03-20T06:16:44;20.27;;;11.73;;
36799;SDS011;22752;51.960;5.886;2023-03-20T06:19:10;19.77;;;11.80;;
36799;SDS011;22752;51.960;5.886;2023-03-20T06:21:36;17.73;;;11.17;;
36799;SDS011;22752;51.960;5.886;2023-03-20T06:24:02;22.13;;;11.43;;
36799;SDS011;22752;51.960;5.886;2023-03-20T06:26:28;24.03;;;12.03;;
36799;SDS011;22752;51.960;5.886;2023-03-20T06:28:53;22.63;;;12.60;;
36799;SDS011;22752;51.960;5.886;2023-03-20T06:31:19;20.73;;;12.40;;
36799;SDS011;22752;51.960;5.886;2023-03-20T06:33:45;26.33;;;12.90;;
36799;SDS011;22752;51.960;5.886;2023-03-20T06:36:11;24.27;;;12.67;;
36799;SDS011;22752;51.960;5.886;2023-03-20T06:38:37;22.33;;;12.17;;
36799;SDS011;22752;51.960;5.886;2023-03-20T06:41:02;19.40;;;11.97;;
36799;SDS011;22752;51.960;5.886;2023-03-20T06:43:28;21.20;;;12.10;;
36799;SDS011;22752;51.960;5.886;2023-03-20T06:45:54;22.53;;;12.37;;
36799;SDS011;22752;51.960;5.886;2023-03-20T06:48:20;25.40;;;12.37;;
36799;SDS011;22752;51.960;5.886;2023-03-20T06:50:47;17.57;;;11.13;;
36799;SDS011;22752;51.960;5.886;2023-03-20T06:53:13;23.93;;;11.30;;
36799;SDS011;22752;51.960;5.886;2023-03-20T06:55:39;20.97;;;11.67;;
36799;SDS011;22752;51.960;5.886;2023-03-20T06:58:05;19.67;;;10.83;;
36799;SDS011;22752;51.960;5.886;2023-03-20T07:00:30;22.03;;;11.37;;
36799;SDS011;22752;51.960;5.886;2023-03-20T07:02:57;18.60;;;11.70;;
36799;SDS011;22752;51.960;5.886;2023-03-20T07:05:22;19.83;;;12.13;;
36799;SDS011;22752;51.960;5.886;2023-03-20T07:07:48;19.80;;;12.20;;
36799;SDS011;22752;51.960;5.886;2023-03-20T07:10:13;21.87;;;12.40;;
36799;SDS011;22752;51.960;5.886;2023-03-20T07:12:39;23.33;;;11.93;;
36799;SDS011;22752;51.960;5.886;2023-03-20T07:15:05;19.73;;;11.33;;
36799;SDS011;22752;51.960;5.886;2023-03-20T07:17:31;21.23;;;12.43;;
36799;SDS011;22752;51.960;5.886;2023-03-20T07:19:57;22.80;;;11.90;;
36799;SDS011;22752;51.960;5.886;2023-03-20T07:22:23;20.80;;;11.50;;
36799;SDS011;22752;51.960;5.886;2023-03-20T07:24:50;20.80;;;11.83;;
36799;SDS011;22752;51.960;5.886;2023-03-20T07:27:16;20.20;;;11.73;;
36799;SDS011;22752;51.960;5.886;2023-03-20T07:29:42;22.83;;;11.27;;
36799;SDS011;22752;51.960;5.886;2023-03-20T07:32:08;23.10;;;11.43;;
36799;SDS011;22752;51.960;5.886;2023-03-20T07:34:34;19.97;;;12.03;;
36799;SDS011;22752;51.960;5.886;2023-03-20T07:37:00;21.03;;;11.50;;
36799;SDS011;22752;51.960;5.886;2023-03-20T07:39:25;19.70;;;10.57;;
36799;SDS011;22752;51.960;5.886;2023-03-20T07:41:51;18.60;;;10.37;;
36799;SDS011;22752;51.960;5.886;2023-03-20T07:44:17;22.13;;;11.63;;
36799;SDS011;22752;51.960;5.886;2023-03-20T07:46:43;20.27;;;10.77;;
36799;SDS011;22752;51.960;5.886;2023-03-20T07:49:13;21.73;;;11.03;;
36799;SDS011;22752;51.960;5.886;2023-03-20T07:51:42;22.30;;;11.53;;
36799;SDS011;22752;51.960;5.886;2023-03-20T07:54:08;23.00;;;11.30;;
36799;SDS011;22752;51.960;5.886;2023-03-20T07:56:33;20.27;;;10.40;;
36799;SDS011;22752;51.960;5.886;2023-03-20T07:58:59;18.10;;;10.17;;
36799;SDS011;22752;51.960;5.886;2023-03-20T08:01:25;21.13;;;9.43;;
36799;SDS011;22752;51.960;5.886;2023-03-20T08:03:50;19.40;;;9.60;;
36799;SDS011;22752;51.960;5.886;2023-03-20T08:06:16;24.60;;;10.77;;
36799;SDS011;22752;51.960;5.886;2023-03-20T08:08:42;21.00;;;9.57;;
36799;SDS011;22752;51.960;5.886;2023-03-20T08:11:09;20.00;;;9.67;;
36799;SDS011;22752;51.960;5.886;2023-03-20T08:13:35;19.40;;;9.53;;
36799;SDS011;22752;51.960;5.886;2023-03-20T08:16:01;17.23;;;9.37;;
36799;SDS011;22752;51.960;5.886;2023-03-20T08:18:27;23.70;;;9.37;;
36799;SDS011;22752;51.960;5.886;2023-03-20T08:20:52;20.33;;;9.30;;
36799;SDS011;22752;51.960;5.886;2023-03-20T08:23:18;18.80;;;9.43;;
36799;SDS011;22752;51.960;5.886;2023-03-20T08:25:47;18.63;;;8.50;;
36799;SDS011;22752;51.960;5.886;2023-03-20T08:28:13;18.17;;;8.90;;
36799;SDS011;22752;51.960;5.886;2023-03-20T08:30:39;15.73;;;8.20;;
36799;SDS011;22752;51.960;5.886;2023-03-20T08:33:05;23.77;;;9.20;;
36799;SDS011;22752;51.960;5.886;2023-03-20T08:35:31;17.73;;;8.30;;
36799;SDS011;22752;51.960;5.886;2023-03-20T08:37:56;19.47;;;8.23;;
36799;SDS011;22752;51.960;5.886;2023-03-20T08:40:22;19.87;;;8.27;;
36799;SDS011;22752;51.960;5.886;2023-03-20T08:42:48;18.20;;;7.90;;
36799;SDS011;22752;51.960;5.886;2023-03-20T08:45:14;17.13;;;8.23;;
36799;SDS011;22752;51.960;5.886;2023-03-20T08:47:40;18.83;;;8.17;;
36799;SDS011;22752;51.960;5.886;2023-03-20T08:50:06;14.20;;;7.50;;
36799;SDS011;22752;51.960;5.886;2023-03-20T08:52:33;18.67;;;8.10;;
36799;SDS011;22752;51.960;5.886;2023-03-20T08:54:59;15.20;;;7.50;;
36799;SDS011;22752;51.960;5.886;2023-03-20T08:57:25;15.10;;;7.40;;
36799;SDS011;22752;51.960;5.886;2023-03-20T08:59:51;18.43;;;7.40;;
36799;SDS011;22752;51.960;5.886;2023-03-20T09:02:17;19.77;;;6.90;;
36799;SDS011;22752;51.960;5.886;2023-03-20T09:04:42;21.03;;;6.97;;
36799;SDS011;22752;51.960;5.886;2023-03-20T09:07:08;19.20;;;7.50;;
36799;SDS011;22752;51.960;5.886;2023-03-20T09:09:33;18.10;;;9.73;;
36799;SDS011;22752;51.960;5.886;2023-03-20T09:12:00;21.73;;;9.27;;
36799;SDS011;22752;51.960;5.886;2023-03-20T09:14:26;15.10;;;6.20;;
36799;SDS011;22752;51.960;5.886;2023-03-20T09:16:52;19.90;;;7.10;;
36799;SDS011;22752;51.960;5.886;2023-03-20T09:19:18;14.70;;;6.83;;
36799;SDS011;22752;51.960;5.886;2023-03-20T09:21:44;15.93;;;6.63;;
36799;SDS011;22752;51.960;5.886;2023-03-20T09:24:10;15.27;;;6.23;;
36799;SDS011;22752;51.960;5.886;2023-03-20T09:26:37;16.03;;;6.07;;
36799;SDS011;22752;51.960;5.886;2023-03-20T09:29:03;17.87;;;6.47;;
36799;SDS011;22752;51.960;5.886;2023-03-20T09:31:29;16.37;;;6.77;;
36799;SDS011;22752;51.960;5.886;2023-03-20T09:33:55;14.00;;;6.10;;
36799;SDS011;22752;51.960;5.886;2023-03-20T09:36:21;14.83;;;6.10;;
36799;SDS011;22752;51.960;5.886;2023-03-20T09:38:47;15.27;;;5.80;;
36799;SDS011;22752;51.960;5.886;2023-03-20T09:41:20;14.53;;;6.17;;
36799;SDS011;22752;51.960;5.886;2023-03-20T09:44:07;17.60;;;5.83;;
36799;SDS011;22752;51.960;5.886;2023-03-20T09:54:21;20.30;;;6.90;;
36799;SDS011;22752;51.960;5.886;2023-03-20T09:56:49;24.20;;;6.77;;
36799;SDS011;22752;51.960;5.886;2023-03-20T09:59:16;15.37;;;6.10;;
36799;SDS011;22752;51.960;5.886;2023-03-20T10:01:48;14.73;;;6.73;;
36799;SDS011;22752;51.960;5.886;2023-03-20T10:04:16;13.43;;;6.28;;
36799;SDS011;22752;51.960;5.886;2023-03-20T10:06:42;20.67;;;7.63;;
36799;SDS011;22752;51.960;5.886;2023-03-20T10:09:20;16.77;;;6.90;;
36799;SDS011;22752;51.960;5.886;2023-03-20T10:22:57;16.73;;;7.72;;
36799;SDS011;22752;51.960;5.886;2023-03-20T10:25:31;15.63;;;7.13;;
36799;SDS011;22752;51.960;5.886;2023-03-20T10:28:08;17.17;;;7.27;;
36799;SDS011;22752;51.960;5.886;2023-03-20T10:41:34;11.17;;;6.40;;
36799;SDS011;22752;51.960;5.886;2023-03-20T10:44:02;14.13;;;5.70;;
36799;SDS011;22752;51.960;5.886;2023-03-20T10:46:31;13.82;;;6.15;;
36799;SDS011;22752;51.960;5.886;2023-03-20T10:49:15;10.97;;;4.50;;
36799;SDS011;22752;51.960;5.886;2023-03-20T10:51:50;13.20;;;5.07;;
36799;SDS011;22752;51.960;5.886;2023-03-20T10:54:23;12.15;;;5.07;;
36799;SDS011;22752;51.960;5.886;2023-03-20T10:56:54;9.85;;;3.80;;
36799;SDS011;22752;51.960;5.886;2023-03-20T10:59:24;11.73;;;4.63;;
36799;SDS011;22752;51.960;5.886;2023-03-20T11:01:52;10.57;;;4.40;;
36799;SDS011;22752;51.960;5.886;2023-03-20T11:04:18;12.93;;;4.38;;
36799;SDS011;22752;51.960;5.886;2023-03-20T11:06:45;9.45;;;3.65;;
36799;SDS011;22752;51.960;5.886;2023-03-20T11:09:30;11.80;;;4.43;;
36799;SDS011;22752;51.960;5.886;2023-03-20T11:11:57;10.48;;;4.22;;
36799;SDS011;22752;51.960;5.886;2023-03-20T11:14:26;13.45;;;4.10;;
36799;SDS011;22752;51.960;5.886;2023-03-20T11:17:00;13.83;;;4.23;;
36799;SDS011;22752;51.960;5.886;2023-03-20T11:19:27;12.35;;;3.55;;
36799;SDS011;22752;51.960;5.886;2023-03-20T11:21:59;12.70;;;3.95;;
36799;SDS011;22752;51.960;5.886;2023-03-20T11:27:07;12.02;;;3.97;;
36799;SDS011;22752;51.960;5.886;2023-03-20T11:29:35;12.23;;;3.83;;
36799;SDS011;22752;51.960;5.886;2023-03-20T11:34:43;11.27;;;4.50;;
36799;SDS011;22752;51.960;5.886;2023-03-20T11:37:28;11.20;;;4.65;;
36799;SDS011;22752;51.960;5.886;2023-03-20T11:40:43;10.80;;;4.30;;
36799;SDS011;22752;51.960;5.886;2023-03-20T11:42:56;10.57;;;4.00;;
36799;SDS011;22752;51.960;5.886;2023-03-20T11:45:22;11.23;;;3.87;;
36799;SDS011;22752;51.960;5.886;2023-03-20T11:47:50;10.73;;;4.75;;
36799;SDS011;22752;51.960;5.886;2023-03-20T11:53:01;11.67;;;4.73;;
36799;SDS011;22752;51.960;5.886;2023-03-20T11:55:29;12.82;;;4.10;;
36799;SDS011;22752;51.960;5.886;2023-03-20T11:57:58;8.63;;;3.60;;
36799;SDS011;22752;51.960;5.886;2023-03-20T12:00:33;12.38;;;4.32;;
36799;SDS011;22752;51.960;5.886;2023-03-20T12:03:00;14.57;;;4.43;;
36799;SDS011;22752;51.960;5.886;2023-03-20T12:05:32;18.23;;;7.82;;
36799;SDS011;22752;51.960;5.886;2023-03-20T12:08:22;41.08;;;20.33;;
36799;SDS011;22752;51.960;5.886;2023-03-20T12:10:50;23.15;;;11.52;;
36799;SDS011;22752;51.960;5.886;2023-03-20T12:13:27;12.80;;;5.68;;
36799;SDS011;22752;51.960;5.886;2023-03-20T12:16:06;14.88;;;5.20;;
36799;SDS011;22752;51.960;5.886;2023-03-20T12:18:37;17.80;;;5.88;;
36799;SDS011;22752;51.960;5.886;2023-03-20T12:23:50;13.07;;;4.65;;
36799;SDS011;22752;51.960;5.886;2023-03-20T12:26:38;15.80;;;6.78;;
36799;SDS011;22752;51.960;5.886;2023-03-20T12:29:35;17.40;;;7.60;;
36799;SDS011;22752;51.960;5.886;2023-03-20T12:32:13;17.17;;;7.82;;
36799;SDS011;22752;51.960;5.886;2023-03-20T12:34:57;17.10;;;6.38;;
36799;SDS011;22752;51.960;5.886;2023-03-20T12:37:28;15.88;;;7.63;;
36799;SDS011;22752;51.960;5.886;2023-03-20T12:39:57;19.67;;;8.32;;
36799;SDS011;22752;51.960;5.886;2023-03-20T12:50:35;21.45;;;8.25;;
36799;SDS011;22752;51.960;5.886;2023-03-20T13:38:40;22.92;;;8.07;;
36799;SDS011;22752;51.960;5.886;2023-03-20T13:41:11;17.60;;;6.45;;
36799;SDS011;22752;51.960;5.886;2023-03-20T13:43:58;22.88;;;6.88;;
36799;SDS011;22752;51.960;5.886;2023-03-20T13:46:28;17.65;;;6.40;;
36799;SDS011;22752;51.960;5.886;2023-03-20T13:51:56;18.65;;;6.72;;
36799;SDS011;22752;51.960;5.886;2023-03-20T13:54:33;19.83;;;6.80;;
36799;SDS011;22752;51.960;5.886;2023-03-20T14:05:17;20.00;;;7.40;;
36799;SDS011;22752;51.960;5.886;2023-03-20T14:07:46;21.95;;;7.72;;
36799;SDS011;22752;51.960;5.886;2023-03-20T14:12:49;14.40;;;6.35;;
36799;SDS011;22752;51.960;5.886;2023-03-20T14:15:20;19.52;;;7.00;;
36799;SDS011;22752;51.960;5.886;2023-03-20T14:17:47;20.83;;;7.45;;
36799;SDS011;22752;51.960;5.886;2023-03-20T14:20:19;17.33;;;7.03;;
36799;SDS011;22752;51.960;5.886;2023-03-20T14:22:53;16.67;;;7.00;;
36799;SDS011;22752;51.960;5.886;2023-03-20T14:25:21;20.47;;;6.93;;
36799;SDS011;22752;51.960;5.886;2023-03-20T14:33:05;18.30;;;6.87;;
36799;SDS011;22752;51.960;5.886;2023-03-20T14:35:50;23.00;;;8.07;;
36799;SDS011;22752;51.960;5.886;2023-03-20T14:38:38;21.47;;;8.53;;
36799;SDS011;22752;51.960;5.886;2023-03-20T14:44:18;24.08;;;8.00;;
36799;SDS011;22752;51.960;5.886;2023-03-20T14:46:51;21.45;;;7.32;;
36799;SDS011;22752;51.960;5.886;2023-03-20T14:55:12;19.00;;;8.32;;
36799;SDS011;22752;51.960;5.886;2023-03-20T14:57:41;24.50;;;8.82;;
36799;SDS011;22752;51.960;5.886;2023-03-20T15:00:43;18.90;;;8.38;;
36799;SDS011;22752;51.960;5.886;2023-03-20T15:03:10;20.60;;;8.05;;
36799;SDS011;22752;51.960;5.886;2023-03-20T15:05:39;22.02;;;8.95;;
36799;SDS011;22752;51.960;5.886;2023-03-20T15:08:09;17.60;;;7.85;;
36799;SDS011;22752;51.960;5.886;2023-03-20T15:10:51;21.10;;;7.68;;
36799;SDS011;22752;51.960;5.886;2023-03-20T15:13:19;21.15;;;8.43;;
36799;SDS011;22752;51.960;5.886;2023-03-20T15:20:48;20.87;;;8.33;;
36799;SDS011;22752;51.960;5.886;2023-03-20T15:23:13;24.57;;;9.20;;
36799;SDS011;22752;51.960;5.886;2023-03-20T15:28:16;22.37;;;8.60;;
36799;SDS011;22752;51.960;5.886;2023-03-20T15:30:45;18.80;;;8.37;;
36799;SDS011;22752;51.960;5.886;2023-03-20T15:33:15;26.10;;;12.23;;
36799;SDS011;22752;51.960;5.886;2023-03-20T15:35:50;20.65;;;9.75;;
36799;SDS011;22752;51.960;5.886;2023-03-20T15:38:16;24.00;;;8.87;;
36799;SDS011;22752;51.960;5.886;2023-03-20T15:40:43;27.93;;;10.37;;
36799;SDS011;22752;51.960;5.886;2023-03-20T15:43:22;24.50;;;9.23;;
36799;SDS011;22752;51.960;5.886;2023-03-20T15:45:49;23.33;;;9.47;;
36799;SDS011;22752;51.960;5.886;2023-03-20T15:48:19;18.77;;;8.47;;
36799;SDS011;22752;51.960;5.886;2023-03-20T15:50:50;17.80;;;7.77;;
36799;SDS011;22752;51.960;5.886;2023-03-20T15:53:30;19.97;;;8.73;;
36799;SDS011;22752;51.960;5.886;2023-03-20T15:58:32;18.97;;;8.20;;
36799;SDS011;22752;51.960;5.886;2023-03-20T16:00:58;23.70;;;9.45;;
36799;SDS011;22752;51.960;5.886;2023-03-20T16:03:26;22.80;;;8.87;;
36799;SDS011;22752;51.960;5.886;2023-03-20T16:05:53;20.30;;;8.70;;
36799;SDS011;22752;51.960;5.886;2023-03-20T16:13:20;24.40;;;8.47;;
36799;SDS011;22752;51.960;5.886;2023-03-20T16:15:48;25.07;;;9.30;;
36799;SDS011;22752;51.960;5.886;2023-03-20T16:18:15;19.47;;;9.00;;
36799;SDS011;22752;51.960;5.886;2023-03-20T16:20:53;21.13;;;8.90;;
36799;SDS011;22752;51.960;5.886;2023-03-20T16:23:26;20.60;;;8.60;;
36799;SDS011;22752;51.960;5.886;2023-03-20T16:25:57;22.30;;;8.13;;
36799;SDS011;22752;51.960;5.886;2023-03-20T16:28:27;26.30;;;9.93;;
36799;SDS011;22752;51.960;5.886;2023-03-20T16:31:02;22.90;;;9.40;;
36799;SDS011;22752;51.960;5.886;2023-03-20T16:33:32;21.63;;;8.33;;
36799;SDS011;22752;51.960;5.886;2023-03-20T16:35:58;19.70;;;8.87;;
36799;SDS011;22752;51.960;5.886;2023-03-20T16:38:26;23.50;;;8.50;;
36799;SDS011;22752;51.960;5.886;2023-03-20T16:41:13;25.47;;;8.63;;
36799;SDS011;22752;51.960;5.886;2023-03-20T16:43:43;29.83;;;14.90;;
36799;SDS011;22752;51.960;5.886;2023-03-20T16:46:15;39.03;;;18.17;;
36799;SDS011;22752;51.960;5.886;2023-03-20T16:48:44;26.90;;;16.00;;
36799;SDS011;22752;51.960;5.886;2023-03-20T16:51:14;31.10;;;14.33;;
36799;SDS011;22752;51.960;5.886;2023-03-20T16:53:46;27.90;;;13.50;;
36799;SDS011;22752;51.960;5.886;2023-03-20T16:56:21;28.77;;;15.87;;
36799;SDS011;22752;51.960;5.886;2023-03-20T16:58:47;29.70;;;15.23;;
36799;SDS011;22752;51.960;5.886;2023-03-20T17:01:14;30.00;;;12.07;;
36799;SDS011;22752;51.960;5.886;2023-03-20T17:13:56;19.37;;;9.37;;
36799;SDS011;22752;51.960;5.886;2023-03-20T17:16:22;23.77;;;9.87;;
36799;SDS011;22752;51.960;5.886;2023-03-20T17:21:25;19.83;;;8.03;;
36799;SDS011;22752;51.960;5.886;2023-03-20T17:23:52;22.67;;;7.90;;
36799;SDS011;22752;51.960;5.886;2023-03-20T17:26:18;24.73;;;9.20;;
36799;SDS011;22752;51.960;5.886;2023-03-20T17:28:44;21.33;;;8.43;;
36799;SDS011;22752;51.960;5.886;2023-03-20T17:31:14;25.20;;;8.70;;
36799;SDS011;22752;51.960;5.886;2023-03-20T17:33:40;18.90;;;8.63;;
36799;SDS011;22752;51.960;5.886;2023-03-20T17:36:25;27.13;;;10.67;;
36799;SDS011;22752;51.960;5.886;2023-03-20T17:38:54;27.47;;;11.37;;
36799;SDS011;22752;51.960;5.886;2023-03-20T17:41:21;27.30;;;10.00;;
36799;SDS011;22752;51.960;5.886;2023-03-20T17:43:47;25.43;;;9.67;;
36799;SDS011;22752;51.960;5.886;2023-03-20T17:48:45;20.00;;;7.67;;
36799;SDS011;22752;51.960;5.886;2023-03-20T17:51:15;20.60;;;8.03;;
36799;SDS011;22752;51.960;5.886;2023-03-20T17:53:40;27.03;;;8.70;;
36799;SDS011;22752;51.960;5.886;2023-03-20T17:56:11;22.73;;;8.13;;
36799;SDS011;22752;51.960;5.886;2023-03-20T17:58:38;24.60;;;8.17;;
36799;SDS011;22752;51.960;5.886;2023-03-20T18:01:05;19.77;;;8.50;;
36799;SDS011;22752;51.960;5.886;2023-03-20T18:03:33;23.63;;;8.33;;